sensor_id;sensor_type;location;lat;lon;timestamp;P1;durP1;ratioP1;P2;durP2;ratioP2
22334;SDS011;11335;43.848;25.958;2023-02-17T00:01:35;49.75;;;28.17;;
22334;SDS011;11335;43.848;25.958;2023-02-17T00:04:21;52.10;;;28.40;;
22334;SDS011;11335;43.848;25.958;2023-02-17T00:07:06;51.15;;;28.42;;
22334;SDS011;11335;43.848;25.958;2023-02-17T00:09:55;47.20;;;26.83;;
22334;SDS011;11335;43.848;25.958;2023-02-17T00:12:40;48.78;;;26.92;;
22334;SDS011;11335;43.848;25.958;2023-02-17T00:15:26;51.65;;;28.08;;
22334;SDS011;11335;43.848;25.958;2023-02-17T00:18:12;51.75;;;27.85;;
22334;SDS011;11335;43.848;25.958;2023-02-17T00:20:57;53.75;;;29.08;;
22334;SDS011;11335;43.848;25.958;2023-02-17T00:23:44;51.80;;;28.85;;
22334;SDS011;11335;43.848;25.958;2023-02-17T00:26:30;48.10;;;27.27;;
22334;SDS011;11335;43.848;25.958;2023-02-17T00:29:15;47.55;;;26.52;;
22334;SDS011;11335;43.848;25.958;2023-02-17T00:32:01;52.67;;;28.17;;
22334;SDS011;11335;43.848;25.958;2023-02-17T00:34:46;54.75;;;28.48;;
22334;SDS011;11335;43.848;25.958;2023-02-17T00:37:34;47.88;;;26.40;;
22334;SDS011;11335;43.848;25.958;2023-02-17T00:40:19;48.42;;;26.45;;
22334;SDS011;11335;43.848;25.958;2023-02-17T00:43:05;48.20;;;26.98;;
22334;SDS011;11335;43.848;25.958;2023-02-17T00:45:51;52.85;;;27.83;;
22334;SDS011;11335;43.848;25.958;2023-02-17T00:48:36;49.55;;;27.25;;
22334;SDS011;11335;43.848;25.958;2023-02-17T00:51:22;48.78;;;27.55;;
22334;SDS011;11335;43.848;25.958;2023-02-17T00:54:08;46.97;;;25.98;;
22334;SDS011;11335;43.848;25.958;2023-02-17T00:56:53;50.05;;;27.52;;
22334;SDS011;11335;43.848;25.958;2023-02-17T00:59:39;49.83;;;27.13;;
22334;SDS011;11335;43.848;25.958;2023-02-17T01:02:25;51.78;;;27.27;;
22334;SDS011;11335;43.848;25.958;2023-02-17T01:05:10;51.92;;;27.92;;
22334;SDS011;11335;43.848;25.958;2023-02-17T01:07:56;50.40;;;28.05;;
22334;SDS011;11335;43.848;25.958;2023-02-17T01:10:43;51.50;;;28.20;;
22334;SDS011;11335;43.848;25.958;2023-02-17T01:13:29;54.67;;;29.23;;
22334;SDS011;11335;43.848;25.958;2023-02-17T01:16:18;49.75;;;27.60;;
22334;SDS011;11335;43.848;25.958;2023-02-17T01:19:05;48.00;;;26.63;;
22334;SDS011;11335;43.848;25.958;2023-02-17T01:21:51;46.53;;;26.77;;
22334;SDS011;11335;43.848;25.958;2023-02-17T01:24:37;44.97;;;25.25;;
22334;SDS011;11335;43.848;25.958;2023-02-17T01:27:22;47.80;;;26.50;;
22334;SDS011;11335;43.848;25.958;2023-02-17T01:30:08;46.65;;;26.27;;
22334;SDS011;11335;43.848;25.958;2023-02-17T01:32:54;50.20;;;26.63;;
22334;SDS011;11335;43.848;25.958;2023-02-17T01:35:39;50.40;;;27.38;;
22334;SDS011;11335;43.848;25.958;2023-02-17T01:38:25;49.15;;;26.50;;
22334;SDS011;11335;43.848;25.958;2023-02-17T01:41:11;50.08;;;27.23;;
22334;SDS011;11335;43.848;25.958;2023-02-17T01:44:08;47.20;;;26.02;;
22334;SDS011;11335;43.848;25.958;2023-02-17T01:46:55;43.35;;;24.30;;
22334;SDS011;11335;43.848;25.958;2023-02-17T01:49:41;45.63;;;24.50;;
22334;SDS011;11335;43.848;25.958;2023-02-17T01:52:26;43.47;;;23.98;;
22334;SDS011;11335;43.848;25.958;2023-02-17T01:55:13;44.28;;;24.63;;
22334;SDS011;11335;43.848;25.958;2023-02-17T01:58:00;45.45;;;24.20;;
22334;SDS011;11335;43.848;25.958;2023-02-17T02:00:47;43.17;;;24.30;;
22334;SDS011;11335;43.848;25.958;2023-02-17T02:03:35;41.90;;;24.52;;
22334;SDS011;11335;43.848;25.958;2023-02-17T02:06:22;45.60;;;24.63;;
22334;SDS011;11335;43.848;25.958;2023-02-17T02:09:11;45.63;;;23.65;;
22334;SDS011;11335;43.848;25.958;2023-02-17T02:11:59;44.28;;;23.90;;
22334;SDS011;11335;43.848;25.958;2023-02-17T02:14:45;40.97;;;22.67;;
22334;SDS011;11335;43.848;25.958;2023-02-17T02:20:51;43.58;;;22.20;;
22334;SDS011;11335;43.848;25.958;2023-02-17T02:39:06;40.33;;;22.13;;
22334;SDS011;11335;43.848;25.958;2023-02-17T02:41:28;40.53;;;21.25;;
22334;SDS011;11335;43.848;25.958;2023-02-17T02:44:16;39.78;;;21.65;;
22334;SDS011;11335;43.848;25.958;2023-02-17T02:47:03;38.35;;;20.35;;
22334;SDS011;11335;43.848;25.958;2023-02-17T02:49:49;36.30;;;19.92;;
22334;SDS011;11335;43.848;25.958;2023-02-17T02:52:37;38.78;;;20.92;;
22334;SDS011;11335;43.848;25.958;2023-02-17T03:04:44;32.40;;;18.70;;
22334;SDS011;11335;43.848;25.958;2023-02-17T03:07:34;32.80;;;18.25;;
22334;SDS011;11335;43.848;25.958;2023-02-17T03:10:20;33.33;;;19.38;;
22334;SDS011;11335;43.848;25.958;2023-02-17T03:13:06;36.10;;;19.08;;
22334;SDS011;11335;43.848;25.958;2023-02-17T03:15:51;33.78;;;18.58;;
22334;SDS011;11335;43.848;25.958;2023-02-17T03:18:37;33.90;;;19.27;;
22334;SDS011;11335;43.848;25.958;2023-02-17T03:21:22;33.58;;;18.85;;
22334;SDS011;11335;43.848;25.958;2023-02-17T03:24:10;35.85;;;19.40;;
22334;SDS011;11335;43.848;25.958;2023-02-17T03:26:55;33.63;;;19.05;;
22334;SDS011;11335;43.848;25.958;2023-02-17T03:29:41;42.60;;;23.90;;
22334;SDS011;11335;43.848;25.958;2023-02-17T03:32:27;41.20;;;23.60;;
22334;SDS011;11335;43.848;25.958;2023-02-17T03:35:13;45.10;;;24.60;;
22334;SDS011;11335;43.848;25.958;2023-02-17T03:37:58;44.83;;;24.60;;
22334;SDS011;11335;43.848;25.958;2023-02-17T03:40:44;41.38;;;23.63;;
22334;SDS011;11335;43.848;25.958;2023-02-17T03:43:29;43.30;;;24.15;;
22334;SDS011;11335;43.848;25.958;2023-02-17T03:46:16;45.33;;;23.83;;
22334;SDS011;11335;43.848;25.958;2023-02-17T03:49:01;41.13;;;22.63;;
22334;SDS011;11335;43.848;25.958;2023-02-17T03:51:47;39.80;;;23.65;;
22334;SDS011;11335;43.848;25.958;2023-02-17T03:54:32;41.28;;;21.73;;
22334;SDS011;11335;43.848;25.958;2023-02-17T03:57:18;39.30;;;22.10;;
22334;SDS011;11335;43.848;25.958;2023-02-17T04:00:04;35.15;;;20.67;;
22334;SDS011;11335;43.848;25.958;2023-02-17T04:02:50;32.97;;;19.65;;
22334;SDS011;11335;43.848;25.958;2023-02-17T04:05:36;36.20;;;20.08;;
22334;SDS011;11335;43.848;25.958;2023-02-17T04:08:21;36.30;;;20.05;;
22334;SDS011;11335;43.848;25.958;2023-02-17T04:11:07;34.40;;;19.65;;
22334;SDS011;11335;43.848;25.958;2023-02-17T04:13:54;38.97;;;20.33;;
22334;SDS011;11335;43.848;25.958;2023-02-17T04:16:39;38.42;;;19.25;;
22334;SDS011;11335;43.848;25.958;2023-02-17T04:19:25;36.15;;;20.30;;
22334;SDS011;11335;43.848;25.958;2023-02-17T04:22:11;36.60;;;20.52;;
22334;SDS011;11335;43.848;25.958;2023-02-17T04:24:56;40.35;;;21.60;;
22334;SDS011;11335;43.848;25.958;2023-02-17T04:27:42;37.90;;;20.95;;
22334;SDS011;11335;43.848;25.958;2023-02-17T04:30:27;38.08;;;21.85;;
22334;SDS011;11335;43.848;25.958;2023-02-17T04:33:13;40.60;;;22.65;;
22334;SDS011;11335;43.848;25.958;2023-02-17T04:35:59;39.10;;;22.10;;
22334;SDS011;11335;43.848;25.958;2023-02-17T04:38:45;38.88;;;22.27;;
22334;SDS011;11335;43.848;25.958;2023-02-17T04:41:30;39.22;;;21.95;;
22334;SDS011;11335;43.848;25.958;2023-02-17T04:44:16;38.20;;;20.83;;
22334;SDS011;11335;43.848;25.958;2023-02-17T04:47:01;37.78;;;20.95;;
22334;SDS011;11335;43.848;25.958;2023-02-17T04:49:47;40.80;;;22.30;;
22334;SDS011;11335;43.848;25.958;2023-02-17T04:52:32;39.17;;;21.95;;
22334;SDS011;11335;43.848;25.958;2023-02-17T04:55:18;39.03;;;21.83;;
22334;SDS011;11335;43.848;25.958;2023-02-17T04:58:04;38.80;;;21.45;;
22334;SDS011;11335;43.848;25.958;2023-02-17T05:00:49;38.33;;;22.38;;
22334;SDS011;11335;43.848;25.958;2023-02-17T05:03:35;42.72;;;21.67;;
22334;SDS011;11335;43.848;25.958;2023-02-17T05:06:20;44.33;;;23.73;;
22334;SDS011;11335;43.848;25.958;2023-02-17T05:09:06;45.08;;;23.88;;
22334;SDS011;11335;43.848;25.958;2023-02-17T05:11:52;41.78;;;23.05;;
22334;SDS011;11335;43.848;25.958;2023-02-17T05:14:37;46.17;;;24.38;;
22334;SDS011;11335;43.848;25.958;2023-02-17T05:17:23;49.97;;;25.95;;
22334;SDS011;11335;43.848;25.958;2023-02-17T05:20:08;49.15;;;27.00;;
22334;SDS011;11335;43.848;25.958;2023-02-17T05:22:54;50.30;;;27.25;;
22334;SDS011;11335;43.848;25.958;2023-02-17T05:25:40;56.65;;;27.52;;
22334;SDS011;11335;43.848;25.958;2023-02-17T05:28:26;51.10;;;28.13;;
22334;SDS011;11335;43.848;25.958;2023-02-17T05:31:11;48.72;;;27.27;;
22334;SDS011;11335;43.848;25.958;2023-02-17T05:33:57;54.13;;;29.38;;
22334;SDS011;11335;43.848;25.958;2023-02-17T05:36:43;59.30;;;29.77;;
22334;SDS011;11335;43.848;25.958;2023-02-17T05:39:28;62.03;;;31.02;;
22334;SDS011;11335;43.848;25.958;2023-02-17T05:42:14;58.78;;;31.40;;
22334;SDS011;11335;43.848;25.958;2023-02-17T05:44:59;57.33;;;32.08;;
22334;SDS011;11335;43.848;25.958;2023-02-17T05:47:45;65.70;;;32.60;;
22334;SDS011;11335;43.848;25.958;2023-02-17T05:50:30;63.10;;;32.65;;
22334;SDS011;11335;43.848;25.958;2023-02-17T05:53:16;107.47;;;52.38;;
22334;SDS011;11335;43.848;25.958;2023-02-17T05:56:02;63.17;;;33.83;;
22334;SDS011;11335;43.848;25.958;2023-02-17T05:58:47;59.13;;;33.40;;
22334;SDS011;11335;43.848;25.958;2023-02-17T06:01:33;65.70;;;35.38;;
22334;SDS011;11335;43.848;25.958;2023-02-17T06:04:19;64.22;;;35.53;;
22334;SDS011;11335;43.848;25.958;2023-02-17T06:07:04;61.90;;;34.28;;
22334;SDS011;11335;43.848;25.958;2023-02-17T06:09:50;65.70;;;36.10;;
22334;SDS011;11335;43.848;25.958;2023-02-17T06:12:35;70.57;;;35.90;;
22334;SDS011;11335;43.848;25.958;2023-02-17T06:15:21;70.45;;;36.38;;
22334;SDS011;11335;43.848;25.958;2023-02-17T06:18:07;70.80;;;37.33;;
22334;SDS011;11335;43.848;25.958;2023-02-17T06:20:56;70.22;;;36.88;;
22334;SDS011;11335;43.848;25.958;2023-02-17T06:23:42;66.93;;;36.42;;
22334;SDS011;11335;43.848;25.958;2023-02-17T06:26:27;68.70;;;36.70;;
22334;SDS011;11335;43.848;25.958;2023-02-17T06:29:13;69.78;;;37.67;;
22334;SDS011;11335;43.848;25.958;2023-02-17T06:31:58;67.55;;;37.25;;
22334;SDS011;11335;43.848;25.958;2023-02-17T06:34:44;72.68;;;38.75;;
22334;SDS011;11335;43.848;25.958;2023-02-17T06:37:30;71.82;;;39.28;;
22334;SDS011;11335;43.848;25.958;2023-02-17T06:40:15;69.63;;;38.92;;
22334;SDS011;11335;43.848;25.958;2023-02-17T06:43:01;75.82;;;40.17;;
22334;SDS011;11335;43.848;25.958;2023-02-17T06:45:46;76.65;;;40.80;;
22334;SDS011;11335;43.848;25.958;2023-02-17T06:48:32;72.15;;;39.33;;
22334;SDS011;11335;43.848;25.958;2023-02-17T06:51:17;77.60;;;41.47;;
22334;SDS011;11335;43.848;25.958;2023-02-17T06:54:03;80.70;;;43.25;;
22334;SDS011;11335;43.848;25.958;2023-02-17T06:56:49;79.57;;;41.95;;
22334;SDS011;11335;43.848;25.958;2023-02-17T06:59:34;79.43;;;42.38;;
22334;SDS011;11335;43.848;25.958;2023-02-17T07:02:20;79.22;;;42.70;;
22334;SDS011;11335;43.848;25.958;2023-02-17T07:05:06;72.57;;;41.92;;
22334;SDS011;11335;43.848;25.958;2023-02-17T07:07:52;76.20;;;42.25;;
22334;SDS011;11335;43.848;25.958;2023-02-17T07:10:37;80.47;;;43.45;;
22334;SDS011;11335;43.848;25.958;2023-02-17T07:13:23;81.35;;;42.33;;
22334;SDS011;11335;43.848;25.958;2023-02-17T07:16:10;84.57;;;43.05;;
22334;SDS011;11335;43.848;25.958;2023-02-17T07:18:56;83.40;;;45.03;;
22334;SDS011;11335;43.848;25.958;2023-02-17T07:21:41;78.22;;;43.03;;
22334;SDS011;11335;43.848;25.958;2023-02-17T07:24:27;80.05;;;43.67;;
22334;SDS011;11335;43.848;25.958;2023-02-17T07:27:13;81.20;;;44.13;;
22334;SDS011;11335;43.848;25.958;2023-02-17T07:29:59;79.57;;;44.03;;
22334;SDS011;11335;43.848;25.958;2023-02-17T07:32:44;79.72;;;43.38;;
22334;SDS011;11335;43.848;25.958;2023-02-17T07:35:30;80.13;;;43.15;;
22334;SDS011;11335;43.848;25.958;2023-02-17T07:38:15;75.47;;;43.55;;
22334;SDS011;11335;43.848;25.958;2023-02-17T07:41:05;74.22;;;42.20;;
22334;SDS011;11335;43.848;25.958;2023-02-17T07:43:52;74.43;;;42.05;;
22334;SDS011;11335;43.848;25.958;2023-02-17T07:46:38;87.78;;;48.05;;
22334;SDS011;11335;43.848;25.958;2023-02-17T07:49:26;78.10;;;42.25;;
22334;SDS011;11335;43.848;25.958;2023-02-17T07:52:12;74.78;;;41.88;;
22334;SDS011;11335;43.848;25.958;2023-02-17T07:55:00;84.97;;;44.33;;
22334;SDS011;11335;43.848;25.958;2023-02-17T07:57:45;77.57;;;43.25;;
22334;SDS011;11335;43.848;25.958;2023-02-17T08:00:31;77.88;;;41.72;;
22334;SDS011;11335;43.848;25.958;2023-02-17T08:03:17;77.97;;;43.85;;
22334;SDS011;11335;43.848;25.958;2023-02-17T08:06:02;76.85;;;43.63;;
22334;SDS011;11335;43.848;25.958;2023-02-17T08:08:48;75.10;;;42.90;;
22334;SDS011;11335;43.848;25.958;2023-02-17T08:11:53;78.93;;;43.55;;
22334;SDS011;11335;43.848;25.958;2023-02-17T08:14:57;70.53;;;40.35;;
22334;SDS011;11335;43.848;25.958;2023-02-17T08:17:43;74.47;;;41.95;;
22334;SDS011;11335;43.848;25.958;2023-02-17T08:20:28;69.20;;;41.03;;
22334;SDS011;11335;43.848;25.958;2023-02-17T08:23:14;72.85;;;41.42;;
22334;SDS011;11335;43.848;25.958;2023-02-17T08:25:59;69.38;;;40.13;;
22334;SDS011;11335;43.848;25.958;2023-02-17T08:28:45;71.75;;;39.75;;
22334;SDS011;11335;43.848;25.958;2023-02-17T08:31:33;75.13;;;40.28;;
22334;SDS011;11335;43.848;25.958;2023-02-17T08:34:19;69.20;;;38.78;;
22334;SDS011;11335;43.848;25.958;2023-02-17T08:37:05;74.50;;;39.92;;
22334;SDS011;11335;43.848;25.958;2023-02-17T08:39:51;71.72;;;40.15;;
22334;SDS011;11335;43.848;25.958;2023-02-17T08:42:37;66.20;;;38.63;;
22334;SDS011;11335;43.848;25.958;2023-02-17T08:45:23;66.07;;;39.33;;
22334;SDS011;11335;43.848;25.958;2023-02-17T08:48:08;73.53;;;39.70;;
22334;SDS011;11335;43.848;25.958;2023-02-17T08:50:54;68.10;;;38.83;;
22334;SDS011;11335;43.848;25.958;2023-02-17T08:53:40;69.15;;;41.15;;
22334;SDS011;11335;43.848;25.958;2023-02-17T08:56:26;72.22;;;40.42;;
22334;SDS011;11335;43.848;25.958;2023-02-17T08:59:11;74.10;;;39.17;;
22334;SDS011;11335;43.848;25.958;2023-02-17T09:01:57;63.55;;;38.83;;
22334;SDS011;11335;43.848;25.958;2023-02-17T09:04:43;65.60;;;39.17;;
22334;SDS011;11335;43.848;25.958;2023-02-17T09:07:29;61.72;;;37.90;;
22334;SDS011;11335;43.848;25.958;2023-02-17T09:10:14;60.00;;;36.70;;
22334;SDS011;11335;43.848;25.958;2023-02-17T09:13:00;61.90;;;36.35;;
22334;SDS011;11335;43.848;25.958;2023-02-17T09:15:46;64.88;;;37.58;;
22334;SDS011;11335;43.848;25.958;2023-02-17T09:18:31;63.55;;;37.95;;
22334;SDS011;11335;43.848;25.958;2023-02-17T09:21:17;64.60;;;37.55;;
22334;SDS011;11335;43.848;25.958;2023-02-17T09:24:04;64.35;;;37.65;;
22334;SDS011;11335;43.848;25.958;2023-02-17T09:26:50;58.30;;;35.72;;
22334;SDS011;11335;43.848;25.958;2023-02-17T09:29:35;63.22;;;36.75;;
22334;SDS011;11335;43.848;25.958;2023-02-17T09:32:21;64.05;;;35.13;;
22334;SDS011;11335;43.848;25.958;2023-02-17T09:35:07;59.15;;;35.70;;
22334;SDS011;11335;43.848;25.958;2023-02-17T09:37:55;60.15;;;35.58;;
22334;SDS011;11335;43.848;25.958;2023-02-17T09:40:42;55.88;;;34.05;;
22334;SDS011;11335;43.848;25.958;2023-02-17T09:43:28;57.67;;;33.85;;
22334;SDS011;11335;43.848;25.958;2023-02-17T09:49:25;58.55;;;33.83;;
22334;SDS011;11335;43.848;25.958;2023-02-17T09:57:48;53.85;;;32.47;;
22334;SDS011;11335;43.848;25.958;2023-02-17T10:00:42;60.13;;;33.90;;
22334;SDS011;11335;43.848;25.958;2023-02-17T10:06:34;50.60;;;31.27;;
22334;SDS011;11335;43.848;25.958;2023-02-17T10:09:26;51.63;;;31.60;;
22334;SDS011;11335;43.848;25.958;2023-02-17T10:12:14;53.33;;;30.90;;
22334;SDS011;11335;43.848;25.958;2023-02-17T10:15:03;49.97;;;30.02;;
22334;SDS011;11335;43.848;25.958;2023-02-17T10:18:00;52.38;;;31.65;;
22334;SDS011;11335;43.848;25.958;2023-02-17T10:23:37;50.55;;;31.25;;
22334;SDS011;11335;43.848;25.958;2023-02-17T10:29:32;53.80;;;31.75;;
22334;SDS011;11335;43.848;25.958;2023-02-17T10:32:20;51.25;;;31.75;;
22334;SDS011;11335;43.848;25.958;2023-02-17T10:35:17;52.83;;;31.60;;
22334;SDS011;11335;43.848;25.958;2023-02-17T10:38:13;55.25;;;32.35;;
22334;SDS011;11335;43.848;25.958;2023-02-17T10:41:02;65.05;;;32.00;;
22334;SDS011;11335;43.848;25.958;2023-02-17T10:43:49;56.05;;;32.70;;
22334;SDS011;11335;43.848;25.958;2023-02-17T10:46:38;49.97;;;30.13;;
22334;SDS011;11335;43.848;25.958;2023-02-17T10:49:35;54.75;;;31.65;;
22334;SDS011;11335;43.848;25.958;2023-02-17T10:52:27;57.42;;;30.92;;
22334;SDS011;11335;43.848;25.958;2023-02-17T10:55:33;50.63;;;31.52;;
22334;SDS011;11335;43.848;25.958;2023-02-17T10:58:24;52.45;;;31.17;;
22334;SDS011;11335;43.848;25.958;2023-02-17T11:01:11;54.50;;;32.22;;
22334;SDS011;11335;43.848;25.958;2023-02-17T11:04:04;52.60;;;31.00;;
22334;SDS011;11335;43.848;25.958;2023-02-17T11:06:51;50.78;;;30.00;;
22334;SDS011;11335;43.848;25.958;2023-02-17T11:09:39;50.53;;;28.52;;
22334;SDS011;11335;43.848;25.958;2023-02-17T11:12:32;46.60;;;28.80;;
22334;SDS011;11335;43.848;25.958;2023-02-17T11:15:19;46.58;;;28.50;;
22334;SDS011;11335;43.848;25.958;2023-02-17T11:18:09;44.70;;;28.30;;
22334;SDS011;11335;43.848;25.958;2023-02-17T11:21:13;47.28;;;27.98;;
22334;SDS011;11335;43.848;25.958;2023-02-17T11:24:00;47.92;;;29.70;;
22334;SDS011;11335;43.848;25.958;2023-02-17T11:26:58;47.22;;;28.25;;
22334;SDS011;11335;43.848;25.958;2023-02-17T11:29:44;46.95;;;28.02;;
22334;SDS011;11335;43.848;25.958;2023-02-17T11:32:30;40.40;;;26.63;;
22334;SDS011;11335;43.848;25.958;2023-02-17T11:38:48;44.33;;;27.45;;
22334;SDS011;11335;43.848;25.958;2023-02-17T11:41:14;47.15;;;27.05;;
22334;SDS011;11335;43.848;25.958;2023-02-17T11:43:59;41.03;;;25.90;;
22334;SDS011;11335;43.848;25.958;2023-02-17T11:46:46;45.03;;;26.63;;
22334;SDS011;11335;43.848;25.958;2023-02-17T11:58:23;47.30;;;28.73;;
22334;SDS011;11335;43.848;25.958;2023-02-17T12:04:28;41.22;;;24.17;;
22334;SDS011;11335;43.848;25.958;2023-02-17T12:10:36;33.47;;;20.17;;
22334;SDS011;11335;43.848;25.958;2023-02-17T12:22:00;34.65;;;21.15;;
22334;SDS011;11335;43.848;25.958;2023-02-17T12:24:51;36.80;;;21.38;;
22334;SDS011;11335;43.848;25.958;2023-02-17T12:30:32;35.47;;;21.85;;
22334;SDS011;11335;43.848;25.958;2023-02-17T12:33:23;37.42;;;22.55;;
22334;SDS011;11335;43.848;25.958;2023-02-17T12:36:15;33.63;;;20.50;;
22334;SDS011;11335;43.848;25.958;2023-02-17T12:39:05;36.97;;;21.63;;
22334;SDS011;11335;43.848;25.958;2023-02-17T12:45:04;34.78;;;21.55;;
22334;SDS011;11335;43.848;25.958;2023-02-17T12:47:52;33.50;;;20.35;;
22334;SDS011;11335;43.848;25.958;2023-02-17T12:50:50;32.50;;;20.77;;
22334;SDS011;11335;43.848;25.958;2023-02-17T12:53:41;32.38;;;19.95;;
22334;SDS011;11335;43.848;25.958;2023-02-17T12:56:42;32.42;;;18.73;;
22334;SDS011;11335;43.848;25.958;2023-02-17T12:59:32;34.25;;;21.33;;
22334;SDS011;11335;43.848;25.958;2023-02-17T13:02:22;31.58;;;19.77;;
22334;SDS011;11335;43.848;25.958;2023-02-17T13:05:15;33.58;;;19.67;;
22334;SDS011;11335;43.848;25.958;2023-02-17T13:08:49;30.48;;;19.73;;
22334;SDS011;11335;43.848;25.958;2023-02-17T13:11:33;32.55;;;21.23;;
22334;SDS011;11335;43.848;25.958;2023-02-17T13:17:29;29.55;;;19.35;;
22334;SDS011;11335;43.848;25.958;2023-02-17T13:20:26;29.65;;;18.70;;
22334;SDS011;11335;43.848;25.958;2023-02-17T13:23:12;29.15;;;18.25;;
22334;SDS011;11335;43.848;25.958;2023-02-17T13:26:12;29.10;;;18.08;;
22334;SDS011;11335;43.848;25.958;2023-02-17T13:31:58;27.25;;;17.02;;
22334;SDS011;11335;43.848;25.958;2023-02-17T13:34:44;26.20;;;16.58;;
22334;SDS011;11335;43.848;25.958;2023-02-17T13:43:17;27.60;;;15.85;;
22334;SDS011;11335;43.848;25.958;2023-02-17T13:46:03;27.00;;;15.70;;
22334;SDS011;11335;43.848;25.958;2023-02-17T13:48:59;25.52;;;15.05;;
22334;SDS011;11335;43.848;25.958;2023-02-17T13:51:45;22.35;;;12.93;;
22334;SDS011;11335;43.848;25.958;2023-02-17T13:54:31;22.50;;;14.63;;
22334;SDS011;11335;43.848;25.958;2023-02-17T14:05:49;20.75;;;13.15;;
22334;SDS011;11335;43.848;25.958;2023-02-17T14:08:39;28.00;;;13.75;;
22334;SDS011;11335;43.848;25.958;2023-02-17T14:11:25;31.45;;;14.75;;
22334;SDS011;11335;43.848;25.958;2023-02-17T14:14:11;28.05;;;14.60;;
22334;SDS011;11335;43.848;25.958;2023-02-17T14:16:58;25.50;;;14.95;;
22334;SDS011;11335;43.848;25.958;2023-02-17T14:19:45;25.63;;;14.80;;
22334;SDS011;11335;43.848;25.958;2023-02-17T14:22:32;25.48;;;15.65;;
22334;SDS011;11335;43.848;25.958;2023-02-17T14:25:25;33.88;;;16.77;;
22334;SDS011;11335;43.848;25.958;2023-02-17T14:28:18;25.88;;;16.25;;
22334;SDS011;11335;43.848;25.958;2023-02-17T14:31:08;26.35;;;15.60;;
22334;SDS011;11335;43.848;25.958;2023-02-17T14:33:58;34.90;;;16.75;;
22334;SDS011;11335;43.848;25.958;2023-02-17T14:36:44;28.75;;;15.98;;
22334;SDS011;11335;43.848;25.958;2023-02-17T14:39:30;26.48;;;16.40;;
22334;SDS011;11335;43.848;25.958;2023-02-17T14:42:16;25.70;;;15.60;;
22334;SDS011;11335;43.848;25.958;2023-02-17T14:45:01;27.25;;;16.15;;
22334;SDS011;11335;43.848;25.958;2023-02-17T14:47:47;29.90;;;17.80;;
22334;SDS011;11335;43.848;25.958;2023-02-17T14:50:33;31.17;;;17.73;;
22334;SDS011;11335;43.848;25.958;2023-02-17T14:53:23;29.83;;;15.95;;
22334;SDS011;11335;43.848;25.958;2023-02-17T14:56:24;27.23;;;16.35;;
22334;SDS011;11335;43.848;25.958;2023-02-17T14:59:10;27.15;;;14.93;;
22334;SDS011;11335;43.848;25.958;2023-02-17T15:01:56;25.85;;;15.98;;
22334;SDS011;11335;43.848;25.958;2023-02-17T15:04:41;27.52;;;15.82;;
22334;SDS011;11335;43.848;25.958;2023-02-17T15:07:27;27.75;;;15.52;;
22334;SDS011;11335;43.848;25.958;2023-02-17T15:10:18;30.02;;;15.02;;
22334;SDS011;11335;43.848;25.958;2023-02-17T15:13:04;21.52;;;13.07;;
22334;SDS011;11335;43.848;25.958;2023-02-17T15:15:51;18.48;;;11.13;;
22334;SDS011;11335;43.848;25.958;2023-02-17T15:18:36;20.52;;;12.30;;
22334;SDS011;11335;43.848;25.958;2023-02-17T15:21:26;19.17;;;11.30;;
22334;SDS011;11335;43.848;25.958;2023-02-17T15:24:15;19.20;;;11.27;;
22334;SDS011;11335;43.848;25.958;2023-02-17T15:27:02;20.73;;;11.07;;
22334;SDS011;11335;43.848;25.958;2023-02-17T15:29:52;20.45;;;12.85;;
22334;SDS011;11335;43.848;25.958;2023-02-17T15:32:37;23.05;;;13.02;;
22334;SDS011;11335;43.848;25.958;2023-02-17T15:35:26;28.30;;;13.07;;
22334;SDS011;11335;43.848;25.958;2023-02-17T15:38:12;20.85;;;11.68;;
22334;SDS011;11335;43.848;25.958;2023-02-17T15:40:58;24.50;;;11.73;;
22334;SDS011;11335;43.848;25.958;2023-02-17T15:43:44;18.95;;;11.52;;
22334;SDS011;11335;43.848;25.958;2023-02-17T15:46:30;22.90;;;12.27;;
22334;SDS011;11335;43.848;25.958;2023-02-17T15:49:16;21.80;;;10.85;;
22334;SDS011;11335;43.848;25.958;2023-02-17T15:52:02;19.35;;;11.40;;
22334;SDS011;11335;43.848;25.958;2023-02-17T15:54:48;39.45;;;22.83;;
22334;SDS011;11335;43.848;25.958;2023-02-17T15:57:33;18.20;;;11.05;;
22334;SDS011;11335;43.848;25.958;2023-02-17T16:00:24;21.85;;;11.52;;
22334;SDS011;11335;43.848;25.958;2023-02-17T16:03:11;21.90;;;10.95;;
22334;SDS011;11335;43.848;25.958;2023-02-17T16:05:57;22.80;;;11.13;;
22334;SDS011;11335;43.848;25.958;2023-02-17T16:08:43;28.40;;;11.70;;
22334;SDS011;11335;43.848;25.958;2023-02-17T16:11:28;19.85;;;10.90;;
22334;SDS011;11335;43.848;25.958;2023-02-17T16:14:20;23.13;;;11.68;;
22334;SDS011;11335;43.848;25.958;2023-02-17T16:17:13;24.48;;;11.88;;
22334;SDS011;11335;43.848;25.958;2023-02-17T16:19:59;27.65;;;12.43;;
22334;SDS011;11335;43.848;25.958;2023-02-17T16:22:45;29.13;;;14.77;;
22334;SDS011;11335;43.848;25.958;2023-02-17T16:25:31;31.80;;;16.33;;
22334;SDS011;11335;43.848;25.958;2023-02-17T16:28:18;31.52;;;15.57;;
22334;SDS011;11335;43.848;25.958;2023-02-17T16:31:04;32.17;;;16.33;;
22334;SDS011;11335;43.848;25.958;2023-02-17T16:33:49;37.20;;;17.05;;
22334;SDS011;11335;43.848;25.958;2023-02-17T16:36:35;30.85;;;15.32;;
22334;SDS011;11335;43.848;25.958;2023-02-17T16:39:22;31.67;;;17.05;;
22334;SDS011;11335;43.848;25.958;2023-02-17T16:42:23;37.45;;;17.38;;
22334;SDS011;11335;43.848;25.958;2023-02-17T16:45:16;34.15;;;16.85;;
22334;SDS011;11335;43.848;25.958;2023-02-17T16:48:02;39.75;;;17.50;;
22334;SDS011;11335;43.848;25.958;2023-02-17T16:50:52;33.25;;;15.98;;
22334;SDS011;11335;43.848;25.958;2023-02-17T16:53:37;31.35;;;15.30;;
22334;SDS011;11335;43.848;25.958;2023-02-17T16:56:44;52.53;;;15.80;;
22334;SDS011;11335;43.848;25.958;2023-02-17T16:59:29;38.85;;;16.00;;
22334;SDS011;11335;43.848;25.958;2023-02-17T17:02:14;26.13;;;13.65;;
22334;SDS011;11335;43.848;25.958;2023-02-17T17:05:00;27.75;;;12.75;;
22334;SDS011;11335;43.848;25.958;2023-02-17T17:07:45;24.05;;;13.00;;
22334;SDS011;11335;43.848;25.958;2023-02-17T17:10:32;29.60;;;13.32;;
22334;SDS011;11335;43.848;25.958;2023-02-17T17:13:18;29.92;;;13.02;;
22334;SDS011;11335;43.848;25.958;2023-02-17T17:16:04;22.10;;;12.10;;
22334;SDS011;11335;43.848;25.958;2023-02-17T17:18:53;30.38;;;13.55;;
22334;SDS011;11335;43.848;25.958;2023-02-17T17:21:39;27.15;;;13.82;;
22334;SDS011;11335;43.848;25.958;2023-02-17T17:24:24;26.25;;;14.73;;
22334;SDS011;11335;43.848;25.958;2023-02-17T17:27:10;31.30;;;17.23;;
22334;SDS011;11335;43.848;25.958;2023-02-17T17:29:59;37.63;;;18.05;;
22334;SDS011;11335;43.848;25.958;2023-02-17T17:32:44;34.03;;;17.15;;
22334;SDS011;11335;43.848;25.958;2023-02-17T17:35:30;37.30;;;16.83;;
22334;SDS011;11335;43.848;25.958;2023-02-17T17:38:15;38.83;;;17.80;;
22334;SDS011;11335;43.848;25.958;2023-02-17T17:41:01;35.92;;;17.42;;
22334;SDS011;11335;43.848;25.958;2023-02-17T17:43:47;27.42;;;15.75;;